sensor_id;sensor_type;location;lat;lon;timestamp;pressure;altitude;pressure_sealevel;temperature;humidity
29907;BME280;16776;50.958;10.994;2023-02-22T00:01:20;98566.16;;;8.74;100.00
29907;BME280;16776;50.958;10.994;2023-02-22T00:03:59;98566.16;;;8.74;100.00
29907;BME280;16776;50.958;10.994;2023-02-22T00:06:26;98564.44;;;8.74;100.00
29907;BME280;16776;50.958;10.994;2023-02-22T00:08:55;98555.84;;;8.75;100.00
29907;BME280;16776;50.958;10.994;2023-02-22T00:11:22;98557.56;;;8.76;100.00
29907;BME280;16776;50.958;10.994;2023-02-22T00:13:50;98556.63;;;8.79;100.00
29907;BME280;16776;50.958;10.994;2023-02-22T00:16:19;98547.22;;;8.78;100.00
29907;BME280;16776;50.958;10.994;2023-02-22T00:18:47;98535.38;;;8.72;100.00
29907;BME280;16776;50.958;10.994;2023-02-22T00:21:14;98537.19;;;8.67;100.00
29907;BME280;16776;50.958;10.994;2023-02-22T00:23:43;98526.03;;;8.68;100.00
29907;BME280;16776;50.958;10.994;2023-02-22T00:26:12;98538.75;;;8.74;100.00
29907;BME280;16776;50.958;10.994;2023-02-22T00:28:43;98537.09;;;8.70;100.00
29907;BME280;16776;50.958;10.994;2023-02-22T00:31:11;98531.91;;;8.75;100.00
29907;BME280;16776;50.958;10.994;2023-02-22T00:33:39;98537.94;;;8.71;100.00
29907;BME280;16776;50.958;10.994;2023-02-22T00:36:06;98531.09;;;8.71;100.00
29907;BME280;16776;50.958;10.994;2023-02-22T00:38:33;98534.53;;;8.70;100.00
29907;BME280;16776;50.958;10.994;2023-02-22T00:40:59;98523.47;;;8.68;100.00
29907;BME280;16776;50.958;10.994;2023-02-22T00:43:26;98523.47;;;8.68;100.00
29907;BME280;16776;50.958;10.994;2023-02-22T00:45:52;98524.38;;;8.65;100.00
29907;BME280;16776;50.958;10.994;2023-02-22T00:48:20;98525.19;;;8.68;100.00
29907;BME280;16776;50.958;10.994;2023-02-22T00:50:47;98520.13;;;8.64;100.00
29907;BME280;16776;50.958;10.994;2023-02-22T00:53:15;98512.47;;;8.63;100.00
29907;BME280;16776;50.958;10.994;2023-02-22T00:55:41;98513.34;;;8.62;100.00
29907;BME280;16776;50.958;10.994;2023-02-22T00:58:08;98511.63;;;8.61;100.00
29907;BME280;16776;50.958;10.994;2023-02-22T01:00:36;98512.50;;;8.60;100.00
29907;BME280;16776;50.958;10.994;2023-02-22T01:03:03;98512.59;;;8.57;100.00
29907;BME280;16776;50.958;10.994;2023-02-22T01:05:31;98511.69;;;8.58;100.00
29907;BME280;16776;50.958;10.994;2023-02-22T01:07:59;98506.66;;;8.53;100.00
29907;BME280;16776;50.958;10.994;2023-02-22T01:10:29;98504.94;;;8.54;100.00
29907;BME280;16776;50.958;10.994;2023-02-22T01:12:57;98506.75;;;8.49;100.00
29907;BME280;16776;50.958;10.994;2023-02-22T01:15:26;98508.50;;;8.47;100.00
29907;BME280;16776;50.958;10.994;2023-02-22T01:17:53;98498.44;;;8.38;100.00
29907;BME280;16776;50.958;10.994;2023-02-22T01:20:21;98497.50;;;8.42;100.00
29907;BME280;16776;50.958;10.994;2023-02-22T01:22:52;98498.38;;;8.41;100.00
29907;BME280;16776;50.958;10.994;2023-02-22T01:25:21;98500.19;;;8.36;100.00
29907;BME280;16776;50.958;10.994;2023-02-22T01:27:48;98498.50;;;8.35;100.00
29907;BME280;16776;50.958;10.994;2023-02-22T01:30:20;98497.59;;;8.37;100.00
29907;BME280;16776;50.958;10.994;2023-02-22T01:32:46;98490.88;;;8.30;100.00
29907;BME280;16776;50.958;10.994;2023-02-22T01:35:17;98485.72;;;8.32;100.00
29907;BME280;16776;50.958;10.994;2023-02-22T01:37:45;98484.91;;;8.30;100.00
29907;BME280;16776;50.958;10.994;2023-02-22T01:40:21;98482.22;;;8.36;100.00
29907;BME280;16776;50.958;10.994;2023-02-22T01:42:51;98478.84;;;8.32;100.00
29907;BME280;16776;50.958;10.994;2023-02-22T01:45:49;98479.63;;;8.37;100.00
29907;BME280;16776;50.958;10.994;2023-02-22T01:48:20;98477.25;;;8.28;100.00
29907;BME280;16776;50.958;10.994;2023-02-22T01:50:52;98476.38;;;8.28;100.00
29907;BME280;16776;50.958;10.994;2023-02-22T01:53:23;98478.09;;;8.27;100.00
29907;BME280;16776;50.958;10.994;2023-02-22T01:55:52;98470.44;;;8.25;100.00
29907;BME280;16776;50.958;10.994;2023-02-22T01:58:20;98472.22;;;8.22;100.00
29907;BME280;16776;50.958;10.994;2023-02-22T02:00:49;98473.94;;;8.21;100.00
29907;BME280;16776;50.958;10.994;2023-02-22T02:03:18;98474.78;;;8.23;100.00
29907;BME280;16776;50.958;10.994;2023-02-22T02:05:47;98464.56;;;8.20;100.00
29907;BME280;16776;50.958;10.994;2023-02-22T02:08:22;98474.78;;;8.23;100.00
29907;BME280;16776;50.958;10.994;2023-02-22T02:10:53;98479.06;;;8.21;100.00
29907;BME280;16776;50.958;10.994;2023-02-22T02:13:22;98469.78;;;8.16;100.00
29907;BME280;16776;50.958;10.994;2023-02-22T02:15:52;98476.50;;;8.21;100.00
29907;BME280;16776;50.958;10.994;2023-02-22T02:18:19;98471.50;;;8.15;100.00
29907;BME280;16776;50.958;10.994;2023-02-22T02:20:58;98464.56;;;8.20;100.00
29907;BME280;16776;50.958;10.994;2023-02-22T02:23:58;98468.81;;;8.21;100.00
29907;BME280;16776;50.958;10.994;2023-02-22T02:27:04;98471.38;;;8.21;100.00
29907;BME280;16776;50.958;10.994;2023-02-22T02:29:46;98468.06;;;8.16;100.00
29907;BME280;16776;50.958;10.994;2023-02-22T02:32:23;98466.59;;;8.03;100.00
29907;BME280;16776;50.958;10.994;2023-02-22T02:34:57;98469.06;;;8.06;100.00
29907;BME280;16776;50.958;10.994;2023-02-22T02:37:32;98470.00;;;8.02;100.00
29907;BME280;16776;50.958;10.994;2023-02-22T02:40:10;98470.13;;;7.96;100.00
29907;BME280;16776;50.958;10.994;2023-02-22T02:42:42;98463.50;;;7.86;100.00
29907;BME280;16776;50.958;10.994;2023-02-22T02:45:17;98461.09;;;7.75;100.00
29907;BME280;16776;50.958;10.994;2023-02-22T02:47:50;98460.44;;;7.67;100.00
29907;BME280;16776;50.958;10.994;2023-02-22T02:50:24;98458.78;;;7.62;100.00
29907;BME280;16776;50.958;10.994;2023-02-22T02:52:52;98456.38;;;7.54;100.00
29907;BME280;16776;50.958;10.994;2023-02-22T02:55:21;98458.16;;;7.49;100.00
29907;BME280;16776;50.958;10.994;2023-02-22T02:57:47;98460.81;;;7.44;100.00
29907;BME280;16776;50.958;10.994;2023-02-22T03:00:18;98447.16;;;7.44;100.00
29907;BME280;16776;50.958;10.994;2023-02-22T03:02:53;98448.00;;;7.44;100.00
29907;BME280;16776;50.958;10.994;2023-02-22T03:05:36;98447.25;;;7.36;100.00
29907;BME280;16776;50.958;10.994;2023-02-22T03:08:12;98437.97;;;7.31;100.00
29907;BME280;16776;50.958;10.994;2023-02-22T03:10:49;98435.47;;;7.28;100.00
29907;BME280;16776;50.958;10.994;2023-02-22T03:13:27;98443.16;;;7.28;100.00
29907;BME280;16776;50.958;10.994;2023-02-22T03:16:01;98435.53;;;7.23;100.00
29907;BME280;16776;50.958;10.994;2023-02-22T03:18:42;98425.34;;;7.22;100.00
29907;BME280;16776;50.958;10.994;2023-02-22T03:21:20;98431.34;;;7.19;100.00
29907;BME280;16776;50.958;10.994;2023-02-22T03:24:00;98434.75;;;7.18;100.00
29907;BME280;16776;50.958;10.994;2023-02-22T03:26:34;98434.00;;;7.13;100.00
29907;BME280;16776;50.958;10.994;2023-02-22T03:29:04;98424.63;;;7.12;100.00
29907;BME280;16776;50.958;10.994;2023-02-22T03:31:34;98430.59;;;7.11;100.00
29907;BME280;16776;50.958;10.994;2023-02-22T03:34:07;98424.59;;;7.14;100.00
29907;BME280;16776;50.958;10.994;2023-02-22T03:36:40;98428.88;;;7.13;100.00
29907;BME280;16776;50.958;10.994;2023-02-22T03:39:10;98414.47;;;7.08;100.00
29907;BME280;16776;50.958;10.994;2023-02-22T03:41:42;98425.50;;;7.11;100.00
29907;BME280;16776;50.958;10.994;2023-02-22T03:44:15;98422.13;;;7.09;100.00
29907;BME280;16776;50.958;10.994;2023-02-22T03:46:45;98406.13;;;6.95;100.00
29907;BME280;16776;50.958;10.994;2023-02-22T03:49:17;98420.44;;;7.07;100.00
29907;BME280;16776;50.958;10.994;2023-02-22T03:51:48;98418.00;;;7.00;100.00
29907;BME280;16776;50.958;10.994;2023-02-22T03:54:15;98413.75;;;6.98;100.00
29907;BME280;16776;50.958;10.994;2023-02-22T03:56:44;98417.22;;;6.97;100.00
29907;BME280;16776;50.958;10.994;2023-02-22T03:59:14;98416.44;;;6.90;100.00
29907;BME280;16776;50.958;10.994;2023-02-22T04:01:41;98410.50;;;6.87;100.00
29907;BME280;16776;50.958;10.994;2023-02-22T04:04:11;98407.13;;;6.85;100.00
29907;BME280;16776;50.958;10.994;2023-02-22T04:06:39;98410.59;;;6.84;100.00
29907;BME280;16776;50.958;10.994;2023-02-22T04:09:05;98405.50;;;6.81;100.00
29907;BME280;16776;50.958;10.994;2023-02-22T04:11:32;98409.78;;;6.79;100.00
29907;BME280;16776;50.958;10.994;2023-02-22T04:13:59;98403.81;;;6.78;100.00
29907;BME280;16776;50.958;10.994;2023-02-22T04:16:28;98407.19;;;6.80;100.00
29907;BME280;16776;50.958;10.994;2023-02-22T04:18:54;98410.69;;;6.75;100.00
29907;BME280;16776;50.958;10.994;2023-02-22T04:21:21;98404.75;;;6.74;100.00
29907;BME280;16776;50.958;10.994;2023-02-22T04:23:49;98408.16;;;6.75;100.00
29907;BME280;16776;50.958;10.994;2023-02-22T04:26:16;98403.88;;;6.74;100.00
29907;BME280;16776;50.958;10.994;2023-02-22T04:28:42;98403.88;;;6.74;100.00
29907;BME280;16776;50.958;10.994;2023-02-22T04:31:09;98400.47;;;6.75;100.00
29907;BME280;16776;50.958;10.994;2023-02-22T04:33:35;98396.19;;;6.75;100.00
29907;BME280;16776;50.958;10.994;2023-02-22T04:36:02;98396.19;;;6.75;100.00
29907;BME280;16776;50.958;10.994;2023-02-22T04:38:29;98397.03;;;6.76;100.00
29907;BME280;16776;50.958;10.994;2023-02-22T04:40:57;98386.75;;;6.79;100.00
29907;BME280;16776;50.958;10.994;2023-02-22T04:43:24;98385.94;;;6.77;100.00
29907;BME280;16776;50.958;10.994;2023-02-22T04:45:50;98391.00;;;6.78;100.00
29907;BME280;16776;50.958;10.994;2023-02-22T04:48:17;98385.09;;;6.78;100.00
29907;BME280;16776;50.958;10.994;2023-02-22T04:50:43;98386.75;;;6.79;100.00
29907;BME280;16776;50.958;10.994;2023-02-22T04:53:11;98365.59;;;6.66;100.00
29907;BME280;16776;50.958;10.994;2023-02-22T04:55:38;98383.31;;;6.80;100.00
29907;BME280;16776;50.958;10.994;2023-02-22T04:58:08;98388.34;;;6.84;100.00
29907;BME280;16776;50.958;10.994;2023-02-22T05:00:35;98382.47;;;6.81;100.00
29907;BME280;16776;50.958;10.994;2023-02-22T05:03:01;98379.91;;;6.79;100.00
29907;BME280;16776;50.958;10.994;2023-02-22T05:05:28;98386.75;;;6.79;100.00
29907;BME280;16776;50.958;10.994;2023-02-22T05:07:54;98375.66;;;6.78;100.00
29907;BME280;16776;50.958;10.994;2023-02-22T05:10:21;98379.13;;;6.77;100.00
29907;BME280;16776;50.958;10.994;2023-02-22T05:12:49;98371.50;;;6.70;100.00
29907;BME280;16776;50.958;10.994;2023-02-22T05:15:19;98372.25;;;6.79;100.00
29907;BME280;16776;50.958;10.994;2023-02-22T05:17:46;98363.00;;;6.68;100.00
29907;BME280;16776;50.958;10.994;2023-02-22T05:20:17;98369.72;;;6.78;100.00
29907;BME280;16776;50.958;10.994;2023-02-22T05:22:47;98368.06;;;6.74;100.00
29907;BME280;16776;50.958;10.994;2023-02-22T05:25:14;98362.84;;;6.80;100.00
29907;BME280;16776;50.958;10.994;2023-02-22T05:27:40;98366.91;;;6.93;100.00
29907;BME280;16776;50.958;10.994;2023-02-22T05:30:09;98355.59;;;7.06;100.00
29907;BME280;16776;50.958;10.994;2023-02-22T05:32:37;98358.66;;;7.26;100.00
29907;BME280;16776;50.958;10.994;2023-02-22T05:35:04;98368.72;;;7.35;100.00
29907;BME280;16776;50.958;10.994;2023-02-22T05:37:32;98368.69;;;7.38;100.00
29907;BME280;16776;50.958;10.994;2023-02-22T05:39:59;98366.97;;;7.37;100.00
29907;BME280;16776;50.958;10.994;2023-02-22T05:42:26;98364.50;;;7.34;100.00
29907;BME280;16776;50.958;10.994;2023-02-22T05:44:52;98365.41;;;7.30;100.00
29907;BME280;16776;50.958;10.994;2023-02-22T05:47:19;98363.81;;;7.25;100.00
29907;BME280;16776;50.958;10.994;2023-02-22T05:49:47;98357.03;;;7.22;100.00
29907;BME280;16776;50.958;10.994;2023-02-22T05:52:13;98360.59;;;7.14;100.00
29907;BME280;16776;50.958;10.994;2023-02-22T05:54:40;98364.94;;;7.09;100.00
29907;BME280;16776;50.958;10.994;2023-02-22T05:57:07;98359.09;;;7.02;100.00
29907;BME280;16776;50.958;10.994;2023-02-22T05:59:33;98361.75;;;6.96;100.00
29907;BME280;16776;50.958;10.994;2023-02-22T06:02:00;98355.84;;;6.91;100.00
29907;BME280;16776;50.958;10.994;2023-02-22T06:04:26;98356.75;;;6.87;100.00
29907;BME280;16776;50.958;10.994;2023-02-22T06:06:54;98355.09;;;6.84;100.00
29907;BME280;16776;50.958;10.994;2023-02-22T06:09:21;98362.91;;;6.77;100.00
29907;BME280;16776;50.958;10.994;2023-02-22T06:11:47;98359.53;;;6.72;100.00
29907;BME280;16776;50.958;10.994;2023-02-22T06:14:14;98359.59;;;6.67;100.00
29907;BME280;16776;50.958;10.994;2023-02-22T06:16:40;98357.13;;;6.61;100.00
29907;BME280;16776;50.958;10.994;2023-02-22T06:19:07;98352.13;;;6.55;100.00
29907;BME280;16776;50.958;10.994;2023-02-22T06:21:34;98347.94;;;6.49;100.00
29907;BME280;16776;50.958;10.994;2023-02-22T06:24:02;98347.09;;;6.47;100.00
29907;BME280;16776;50.958;10.994;2023-02-22T06:26:29;98358.28;;;6.40;100.00
29907;BME280;16776;50.958;10.994;2023-02-22T06:28:55;98357.50;;;6.35;100.00
29907;BME280;16776;50.958;10.994;2023-02-22T06:31:22;98364.41;;;6.32;100.00
29907;BME280;16776;50.958;10.994;2023-02-22T06:33:48;98365.28;;;6.29;100.00
29907;BME280;16776;50.958;10.994;2023-02-22T06:36:15;98367.00;;;6.27;100.00
29907;BME280;16776;50.958;10.994;2023-02-22T06:38:42;98365.38;;;6.21;100.00
29907;BME280;16776;50.958;10.994;2023-02-22T06:41:10;98373.00;;;6.26;100.00
29907;BME280;16776;50.958;10.994;2023-02-22T06:43:36;98373.03;;;6.24;100.00
29907;BME280;16776;50.958;10.994;2023-02-22T06:46:03;98361.94;;;6.24;100.00
29907;BME280;16776;50.958;10.994;2023-02-22T06:48:32;98372.16;;;6.24;100.00
29907;BME280;16776;50.958;10.994;2023-02-22T06:50:59;98378.16;;;6.23;100.00
29907;BME280;16776;50.958;10.994;2023-02-22T06:53:25;98379.84;;;6.22;100.00
29907;BME280;16776;50.958;10.994;2023-02-22T06:55:52;98378.16;;;6.23;100.00
29907;BME280;16776;50.958;10.994;2023-02-22T06:58:20;98379.78;;;6.29;100.00
29907;BME280;16776;50.958;10.994;2023-02-22T07:00:47;98380.59;;;6.32;100.00
29907;BME280;16776;50.958;10.994;2023-02-22T07:03:13;98375.38;;;6.38;100.00
29907;BME280;16776;50.958;10.994;2023-02-22T07:05:41;98371.00;;;6.46;100.00
29907;BME280;16776;50.958;10.994;2023-02-22T07:08:09;98370.00;;;6.56;100.00
29907;BME280;16776;50.958;10.994;2023-02-22T07:10:38;98352.94;;;6.57;100.00
29907;BME280;16776;50.958;10.994;2023-02-22T07:13:06;98379.91;;;6.79;100.00
29907;BME280;16776;50.958;10.994;2023-02-22T07:15:35;98373.81;;;6.89;100.00
29907;BME280;16776;50.958;10.994;2023-02-22T07:18:02;98372.00;;;6.94;100.00
29907;BME280;16776;50.958;10.994;2023-02-22T07:20:29;98373.50;;;7.08;100.00
29907;BME280;16776;50.958;10.994;2023-02-22T07:22:56;98373.31;;;7.17;100.00
29907;BME280;16776;50.958;10.994;2023-02-22T07:25:23;98384.28;;;7.26;100.00
29907;BME280;16776;50.958;10.994;2023-02-22T07:27:50;98387.47;;;7.37;100.00
29907;BME280;16776;50.958;10.994;2023-02-22T07:30:19;98364.44;;;7.36;100.00
29907;BME280;16776;50.958;10.994;2023-02-22T07:32:51;98377.69;;;7.61;100.00
29907;BME280;16776;50.958;10.994;2023-02-22T07:35:20;98383.41;;;7.73;100.00
29907;BME280;16776;50.958;10.994;2023-02-22T07:37:47;98377.19;;;7.85;100.00
29907;BME280;16776;50.958;10.994;2023-02-22T07:40:14;98365.81;;;7.98;100.00
29907;BME280;16776;50.958;10.994;2023-02-22T07:42:52;98369.72;;;8.17;100.00
29907;BME280;16776;50.958;10.994;2023-02-22T07:45:20;98373.03;;;8.22;100.00
29907;BME280;16776;50.958;10.994;2023-02-22T07:47:47;98365.19;;;8.30;100.00
29907;BME280;16776;50.958;10.994;2023-02-22T07:50:17;98372.66;;;8.39;100.00
29907;BME280;16776;50.958;10.994;2023-02-22T07:52:44;98368.31;;;8.43;100.00
29907;BME280;16776;50.958;10.994;2023-02-22T07:55:13;98358.91;;;8.43;100.00
29907;BME280;16776;50.958;10.994;2023-02-22T07:57:41;98373.91;;;8.60;100.00
29907;BME280;16776;50.958;10.994;2023-02-22T08:00:09;98366.88;;;8.68;100.00
29907;BME280;16776;50.958;10.994;2023-02-22T08:02:36;98376.03;;;8.78;100.00
29907;BME280;16776;50.958;10.994;2023-02-22T08:05:04;98375.84;;;8.87;100.00
29907;BME280;16776;50.958;10.994;2023-02-22T08:07:34;98378.16;;;8.96;100.00
29907;BME280;16776;50.958;10.994;2023-02-22T08:10:00;98377.13;;;9.03;100.00
29907;BME280;16776;50.958;10.994;2023-02-22T08:12:30;98371.84;;;9.10;100.00
29907;BME280;16776;50.958;10.994;2023-02-22T08:14:57;98369.06;;;9.19;100.00
29907;BME280;16776;50.958;10.994;2023-02-22T08:17:24;98374.75;;;9.30;100.00
29907;BME280;16776;50.958;10.994;2023-02-22T08:19:50;98373.63;;;9.41;100.00
29907;BME280;16776;50.958;10.994;2023-02-22T08:22:17;98369.00;;;9.54;100.00
29907;BME280;16776;50.958;10.994;2023-02-22T08:24:45;98366.91;;;9.68;100.00
29907;BME280;16776;50.958;10.994;2023-02-22T08:27:11;98367.38;;;9.82;100.00
29907;BME280;16776;50.958;10.994;2023-02-22T08:29:38;98363.44;;;10.00;100.00
29907;BME280;16776;50.958;10.994;2023-02-22T08:32:04;98365.44;;;10.20;100.00
29907;BME280;16776;50.958;10.994;2023-02-22T08:34:31;98352.00;;;10.40;100.00
29907;BME280;16776;50.958;10.994;2023-02-22T08:36:57;98364.28;;;10.59;100.00
29907;BME280;16776;50.958;10.994;2023-02-22T08:39:24;98362.84;;;10.77;100.00
29907;BME280;16776;50.958;10.994;2023-02-22T08:41:52;98357.06;;;10.97;100.00
29907;BME280;16776;50.958;10.994;2023-02-22T08:44:19;98360.03;;;11.11;100.00
29907;BME280;16776;50.958;10.994;2023-02-22T08:46:48;98362.88;;;11.28;100.00
29907;BME280;16776;50.958;10.994;2023-02-22T08:49:15;98359.88;;;11.40;100.00
29907;BME280;16776;50.958;10.994;2023-02-22T08:51:42;98362.94;;;11.52;100.00
29907;BME280;16776;50.958;10.994;2023-02-22T08:54:09;98355.72;;;11.63;100.00
29907;BME280;16776;50.958;10.994;2023-02-22T08:56:35;98354.44;;;11.74;100.00
29907;BME280;16776;50.958;10.994;2023-02-22T08:59:03;98351.31;;;11.90;100.00
29907;BME280;16776;50.958;10.994;2023-02-22T09:01:30;98350.97;;;11.99;100.00
29907;BME280;16776;50.958;10.994;2023-02-22T09:03:58;98347.97;;;12.09;100.00
29907;BME280;16776;50.958;10.994;2023-02-22T09:06:25;98345.97;;;12.17;100.00
29907;BME280;16776;50.958;10.994;2023-02-22T09:08:51;98338.72;;;12.27;100.00
29907;BME280;16776;50.958;10.994;2023-02-22T09:11:18;98347.72;;;12.39;100.00
29907;BME280;16776;50.958;10.994;2023-02-22T09:13:44;98342.97;;;12.50;100.00
29907;BME280;16776;50.958;10.994;2023-02-22T09:16:12;98336.47;;;12.63;100.00
29907;BME280;16776;50.958;10.994;2023-02-22T09:18:39;98342.84;;;12.76;100.00
29907;BME280;16776;50.958;10.994;2023-02-22T09:21:05;98343.31;;;12.86;100.00
29907;BME280;16776;50.958;10.994;2023-02-22T09:23:32;98347.25;;;12.94;100.00
29907;BME280;16776;50.958;10.994;2023-02-22T09:25:59;98339.88;;;13.06;100.00
29907;BME280;16776;50.958;10.994;2023-02-22T09:28:26;98342.91;;;13.17;100.00
29907;BME280;16776;50.958;10.994;2023-02-22T09:30:53;98339.00;;;13.27;100.00
29907;BME280;16776;50.958;10.994;2023-02-22T09:33:21;98328.13;;;13.39;100.00
29907;BME280;16776;50.958;10.994;2023-02-22T09:35:48;98283.16;;;13.23;100.00
29907;BME280;16776;50.958;10.994;2023-02-22T09:38:17;98322.66;;;13.67;100.00
29907;BME280;16776;50.958;10.994;2023-02-22T09:40:47;98318.53;;;13.81;100.00
29907;BME280;16776;50.958;10.994;2023-02-22T09:43:23;98320.44;;;13.97;100.00
29907;BME280;16776;50.958;10.994;2023-02-22T09:46:25;98323.16;;;14.12;100.00
29907;BME280;16776;50.958;10.994;2023-02-22T09:48:58;98315.97;;;14.19;100.00
29907;BME280;16776;50.958;10.994;2023-02-22T09:51:28;98314.75;;;14.26;100.00
29907;BME280;16776;50.958;10.994;2023-02-22T09:53:59;98314.03;;;14.41;100.00
29907;BME280;16776;50.958;10.994;2023-02-22T09:56:27;98315.53;;;14.47;100.00
29907;BME280;16776;50.958;10.994;2023-02-22T09:59:00;98305.63;;;14.55;100.00
29907;BME280;16776;50.958;10.994;2023-02-22T10:01:30;98307.03;;;14.62;100.00
29907;BME280;16776;50.958;10.994;2023-02-22T10:04:05;98306.59;;;14.71;100.00
29907;BME280;16776;50.958;10.994;2023-02-22T10:06:38;98297.50;;;14.80;100.00
29907;BME280;16776;50.958;10.994;2023-02-22T10:09:08;98303.00;;;14.91;100.00
29907;BME280;16776;50.958;10.994;2023-02-22T10:11:49;98296.81;;;15.11;100.00
29907;BME280;16776;50.958;10.994;2023-02-22T10:14:46;98300.47;;;15.24;100.00
29907;BME280;16776;50.958;10.994;2023-02-22T10:17:20;98294.03;;;15.32;100.00
29907;BME280;16776;50.958;10.994;2023-02-22T10:22:57;98300.28;;;15.61;100.00
29907;BME280;16776;50.958;10.994;2023-02-22T10:25:26;98287.56;;;15.57;100.00
29907;BME280;16776;50.958;10.994;2023-02-22T10:27:56;98291.69;;;15.61;100.00
29907;BME280;16776;50.958;10.994;2023-02-22T10:30:27;98299.28;;;15.64;100.00
29907;BME280;16776;50.958;10.994;2023-02-22T10:33:02;98287.94;;;15.66;100.00
29907;BME280;16776;50.958;10.994;2023-02-22T10:35:35;98283.66;;;15.65;100.00
29907;BME280;16776;50.958;10.994;2023-02-22T10:38:13;98281.13;;;15.64;100.00
29907;BME280;16776;50.958;10.994;2023-02-22T10:40:43;98274.56;;;15.57;99.22
29907;BME280;16776;50.958;10.994;2023-02-22T10:43:11;98274.22;;;15.47;99.44
29907;BME280;16776;50.958;10.994;2023-02-22T10:45:39;98277.34;;;15.54;99.49
29907;BME280;16776;50.958;10.994;2023-02-22T10:48:07;98272.16;;;15.54;99.35
29907;BME280;16776;50.958;10.994;2023-02-22T10:50:38;98262.69;;;15.53;99.37
29907;BME280;16776;50.958;10.994;2023-02-22T10:53:06;98271.72;;;15.46;98.34
29907;BME280;16776;50.958;10.994;2023-02-22T10:55:32;98263.66;;;15.34;97.96
29907;BME280;16776;50.958;10.994;2023-02-22T10:58:01;98272.63;;;15.27;97.59
29907;BME280;16776;50.958;10.994;2023-02-22T11:00:32;98269.91;;;15.13;98.49
29907;BME280;16776;50.958;10.994;2023-02-22T11:03:03;98258.53;;;14.98;98.24
29907;BME280;16776;50.958;10.994;2023-02-22T11:05:34;98259.56;;;14.96;98.49
29907;BME280;16776;50.958;10.994;2023-02-22T11:08:18;98256.03;;;14.97;98.91
29907;BME280;16776;50.958;10.994;2023-02-22T11:10:49;98254.88;;;14.85;98.92
29907;BME280;16776;50.958;10.994;2023-02-22T11:13:17;98244.69;;;14.82;98.90
29907;BME280;16776;50.958;10.994;2023-02-22T11:15:44;98243.84;;;14.82;99.28
29907;BME280;16776;50.958;10.994;2023-02-22T11:18:23;98244.06;;;14.94;99.15
29907;BME280;16776;50.958;10.994;2023-02-22T11:20:59;98239.66;;;14.96;99.41
29907;BME280;16776;50.958;10.994;2023-02-22T11:23:28;98230.78;;;15.00;100.00
29907;BME280;16776;50.958;10.994;2023-02-22T11:26:02;98227.56;;;15.13;99.53
29907;BME280;16776;50.958;10.994;2023-02-22T11:28:31;98228.25;;;15.16;99.59
29907;BME280;16776;50.958;10.994;2023-02-22T11:31:14;98222.22;;;15.33;99.39
29907;BME280;16776;50.958;10.994;2023-02-22T11:33:48;98219.44;;;15.36;99.26
29907;BME280;16776;50.958;10.994;2023-02-22T11:36:29;98203.66;;;15.40;99.02
29907;BME280;16776;50.958;10.994;2023-02-22T11:38:58;98206.44;;;15.53;99.08
29907;BME280;16776;50.958;10.994;2023-02-22T11:41:30;98200.91;;;15.59;99.06
29907;BME280;16776;50.958;10.994;2023-02-22T11:44:23;98201.75;;;15.75;99.58
29907;BME280;16776;50.958;10.994;2023-02-22T11:46:54;98198.56;;;15.70;98.58
29907;BME280;16776;50.958;10.994;2023-02-22T11:49:23;98199.25;;;15.74;97.99
29907;BME280;16776;50.958;10.994;2023-02-22T11:52:07;98187.84;;;15.76;98.73
29907;BME280;16776;50.958;10.994;2023-02-22T11:54:49;98171.00;;;15.68;97.63
29907;BME280;16776;50.958;10.994;2023-02-22T11:57:27;98185.31;;;15.75;98.53
29907;BME280;16776;50.958;10.994;2023-02-22T12:00:04;98183.56;;;15.75;97.89
29907;BME280;16776;50.958;10.994;2023-02-22T12:05:54;98185.81;;;15.81;97.90
29907;BME280;16776;50.958;10.994;2023-02-22T12:08:35;98179.78;;;15.81;97.56
29907;BME280;16776;50.958;10.994;2023-02-22T12:11:13;98166.09;;;15.79;97.51
29907;BME280;16776;50.958;10.994;2023-02-22T12:13:57;98170.44;;;15.78;97.63
29907;BME280;16776;50.958;10.994;2023-02-22T12:16:33;98163.63;;;15.76;97.96
29907;BME280;16776;50.958;10.994;2023-02-22T12:19:10;98167.84;;;15.78;97.23
29907;BME280;16776;50.958;10.994;2023-02-22T12:21:42;98165.31;;;15.77;97.35
29907;BME280;16776;50.958;10.994;2023-02-22T12:24:13;98160.88;;;15.79;97.08
29907;BME280;16776;50.958;10.994;2023-02-22T12:26:44;98156.53;;;15.79;98.00
29907;BME280;16776;50.958;10.994;2023-02-22T12:29:26;98166.56;;;15.70;97.15
29907;BME280;16776;50.958;10.994;2023-02-22T12:31:55;98157.22;;;15.67;97.10
29907;BME280;16776;50.958;10.994;2023-02-22T12:34:29;98157.28;;;15.66;95.91
29907;BME280;16776;50.958;10.994;2023-02-22T12:37:02;98162.06;;;15.58;96.60
29907;BME280;16776;50.958;10.994;2023-02-22T12:39:41;98144.47;;;15.47;95.86
29907;BME280;16776;50.958;10.994;2023-02-22T12:42:19;98147.16;;;15.46;96.34
29907;BME280;16776;50.958;10.994;2023-02-22T12:44:54;98146.38;;;15.44;96.91
29907;BME280;16776;50.958;10.994;2023-02-22T12:47:30;98132.28;;;15.32;97.02
29907;BME280;16776;50.958;10.994;2023-02-22T12:50:05;98153.59;;;15.38;96.65
29907;BME280;16776;50.958;10.994;2023-02-22T12:52:41;98143.47;;;15.34;96.54
29907;BME280;16776;50.958;10.994;2023-02-22T12:55:13;98152.28;;;15.30;96.75
29907;BME280;16776;50.958;10.994;2023-02-22T12:57:48;98146.34;;;15.28;96.69
29907;BME280;16776;50.958;10.994;2023-02-22T13:00:19;98141.38;;;15.23;96.71
29907;BME280;16776;50.958;10.994;2023-02-22T13:02:57;98145.44;;;15.29;96.53
29907;BME280;16776;50.958;10.994;2023-02-22T13:05:25;98139.56;;;15.25;96.58
29907;BME280;16776;50.958;10.994;2023-02-22T13:08:07;98136.59;;;15.33;96.57
29907;BME280;16776;50.958;10.994;2023-02-22T13:10:54;98137.47;;;15.32;96.05